sensor_id;sensor_type;location;lat;lon;timestamp;temperature;humidity
17845;DHT22;9047;53.486;10.218;2024-03-23T00:53:08;7.30;99.90
17845;DHT22;9047;53.486;10.218;2024-03-23T00:55:36;7.30;99.90
17845;DHT22;9047;53.486;10.218;2024-03-23T00:58:02;7.30;99.90
17845;DHT22;9047;53.486;10.218;2024-03-23T01:00:31;7.30;99.90
17845;DHT22;9047;53.486;10.218;2024-03-23T01:02:57;7.30;99.90
17845;DHT22;9047;53.486;10.218;2024-03-23T01:05:24;7.30;99.90
17845;DHT22;9047;53.486;10.218;2024-03-23T01:07:50;7.30;99.90
17845;DHT22;9047;53.486;10.218;2024-03-23T01:10:17;7.30;99.90
17845;DHT22;9047;53.486;10.218;2024-03-23T01:12:44;7.20;99.90
17845;DHT22;9047;53.486;10.218;2024-03-23T01:15:11;7.20;99.90
17845;DHT22;9047;53.486;10.218;2024-03-23T01:17:39;7.20;99.90
17845;DHT22;9047;53.486;10.218;2024-03-23T01:20:07;7.20;99.90
17845;DHT22;9047;53.486;10.218;2024-03-23T01:22:37;7.20;99.90
17845;DHT22;9047;53.486;10.218;2024-03-23T01:25:04;7.20;99.90
17845;DHT22;9047;53.486;10.218;2024-03-23T01:27:30;7.20;99.90
17845;DHT22;9047;53.486;10.218;2024-03-23T01:29:58;7.20;99.90
17845;DHT22;9047;53.486;10.218;2024-03-23T01:32:24;7.20;99.90
17845;DHT22;9047;53.486;10.218;2024-03-23T01:34:52;7.20;99.90
17845;DHT22;9047;53.486;10.218;2024-03-23T01:37:18;7.10;99.90
17845;DHT22;9047;53.486;10.218;2024-03-23T01:39:46;7.10;99.90
17845;DHT22;9047;53.486;10.218;2024-03-23T01:42:12;7.10;99.90
17845;DHT22;9047;53.486;10.218;2024-03-23T01:44:41;7.10;99.90
17845;DHT22;9047;53.486;10.218;2024-03-23T01:47:09;7.00;99.90
17845;DHT22;9047;53.486;10.218;2024-03-23T01:49:39;7.00;99.90
17845;DHT22;9047;53.486;10.218;2024-03-23T01:52:08;7.00;99.90
17845;DHT22;9047;53.486;10.218;2024-03-23T01:54:38;7.00;99.90
17845;DHT22;9047;53.486;10.218;2024-03-23T01:57:04;7.00;99.90
17845;DHT22;9047;53.486;10.218;2024-03-23T01:59:32;7.00;99.90
17845;DHT22;9047;53.486;10.218;2024-03-23T02:01:59;7.00;99.90
17845;DHT22;9047;53.486;10.218;2024-03-23T02:04:26;6.90;99.90
17845;DHT22;9047;53.486;10.218;2024-03-23T02:06:53;6.90;99.90
17845;DHT22;9047;53.486;10.218;2024-03-23T02:09:22;6.90;99.90
17845;DHT22;9047;53.486;10.218;2024-03-23T02:11:49;6.90;99.90
17845;DHT22;9047;53.486;10.218;2024-03-23T02:14:18;6.80;99.90
17845;DHT22;9047;53.486;10.218;2024-03-23T02:16:44;6.80;99.90
17845;DHT22;9047;53.486;10.218;2024-03-23T02:19:12;6.80;99.90
17845;DHT22;9047;53.486;10.218;2024-03-23T02:21:39;6.70;99.90
17845;DHT22;9047;53.486;10.218;2024-03-23T02:24:08;6.70;99.90
17845;DHT22;9047;53.486;10.218;2024-03-23T02:26:34;6.70;99.90
17845;DHT22;9047;53.486;10.218;2024-03-23T02:29:00;6.70;99.90
17845;DHT22;9047;53.486;10.218;2024-03-23T02:31:26;6.80;99.90
17845;DHT22;9047;53.486;10.218;2024-03-23T02:33:53;6.70;99.90
17845;DHT22;9047;53.486;10.218;2024-03-23T02:36:19;6.70;99.90
17845;DHT22;9047;53.486;10.218;2024-03-23T02:38:47;6.70;99.90
17845;DHT22;9047;53.486;10.218;2024-03-23T02:41:18;6.60;99.90
17845;DHT22;9047;53.486;10.218;2024-03-23T02:43:49;6.60;99.90
17845;DHT22;9047;53.486;10.218;2024-03-23T02:46:15;6.60;99.90
17845;DHT22;9047;53.486;10.218;2024-03-23T02:48:42;6.60;99.90
17845;DHT22;9047;53.486;10.218;2024-03-23T02:51:08;6.60;99.90
17845;DHT22;9047;53.486;10.218;2024-03-23T02:53:38;6.50;99.90
17845;DHT22;9047;53.486;10.218;2024-03-23T02:56:06;6.50;99.90
17845;DHT22;9047;53.486;10.218;2024-03-23T02:58:42;6.50;99.90
17845;DHT22;9047;53.486;10.218;2024-03-23T03:01:09;6.50;99.90
17845;DHT22;9047;53.486;10.218;2024-03-23T03:03:36;6.50;99.90
17845;DHT22;9047;53.486;10.218;2024-03-23T03:06:04;6.40;99.90
17845;DHT22;9047;53.486;10.218;2024-03-23T03:08:32;6.40;99.90
17845;DHT22;9047;53.486;10.218;2024-03-23T03:10:57;6.40;99.90
17845;DHT22;9047;53.486;10.218;2024-03-23T03:13:24;6.40;99.90
17845;DHT22;9047;53.486;10.218;2024-03-23T03:15:53;6.40;99.90
17845;DHT22;9047;53.486;10.218;2024-03-23T03:18:20;6.40;99.90
17845;DHT22;9047;53.486;10.218;2024-03-23T03:20:46;6.30;99.90
17845;DHT22;9047;53.486;10.218;2024-03-23T03:23:15;6.30;99.90
17845;DHT22;9047;53.486;10.218;2024-03-23T03:25:43;6.30;99.90
17845;DHT22;9047;53.486;10.218;2024-03-23T03:28:13;6.20;99.90
17845;DHT22;9047;53.486;10.218;2024-03-23T03:30:40;6.30;99.90
17845;DHT22;9047;53.486;10.218;2024-03-23T03:33:08;6.20;99.90
17845;DHT22;9047;53.486;10.218;2024-03-23T03:35:38;6.20;99.90
17845;DHT22;9047;53.486;10.218;2024-03-23T03:38:06;6.20;99.90
17845;DHT22;9047;53.486;10.218;2024-03-23T03:40:32;6.20;99.90
17845;DHT22;9047;53.486;10.218;2024-03-23T03:43:03;6.20;99.90
17845;DHT22;9047;53.486;10.218;2024-03-23T03:45:29;6.10;99.90
17845;DHT22;9047;53.486;10.218;2024-03-23T03:47:56;6.10;99.90
17845;DHT22;9047;53.486;10.218;2024-03-23T03:50:24;6.10;99.90
17845;DHT22;9047;53.486;10.218;2024-03-23T03:52:50;6.10;99.90
17845;DHT22;9047;53.486;10.218;2024-03-23T03:55:17;6.00;99.90
17845;DHT22;9047;53.486;10.218;2024-03-23T03:57:47;6.00;99.90
17845;DHT22;9047;53.486;10.218;2024-03-23T04:00:13;6.00;99.90
17845;DHT22;9047;53.486;10.218;2024-03-23T04:02:41;5.90;99.90
17845;DHT22;9047;53.486;10.218;2024-03-23T04:05:08;5.90;99.90
17845;DHT22;9047;53.486;10.218;2024-03-23T04:07:38;5.90;99.90
17845;DHT22;9047;53.486;10.218;2024-03-23T04:10:04;5.90;99.90
17845;DHT22;9047;53.486;10.218;2024-03-23T04:12:35;5.90;99.90
17845;DHT22;9047;53.486;10.218;2024-03-23T04:15:02;5.80;99.90
17845;DHT22;9047;53.486;10.218;2024-03-23T04:17:30;5.80;99.90
17845;DHT22;9047;53.486;10.218;2024-03-23T04:19:58;5.80;99.90
17845;DHT22;9047;53.486;10.218;2024-03-23T04:22:26;5.80;99.90
17845;DHT22;9047;53.486;10.218;2024-03-23T04:24:55;5.80;99.90
17845;DHT22;9047;53.486;10.218;2024-03-23T04:27:22;5.80;99.90
17845;DHT22;9047;53.486;10.218;2024-03-23T04:29:48;5.80;99.90
17845;DHT22;9047;53.486;10.218;2024-03-23T04:32:15;5.80;99.90
17845;DHT22;9047;53.486;10.218;2024-03-23T04:34:45;5.80;99.90
17845;DHT22;9047;53.486;10.218;2024-03-23T04:37:12;5.70;99.90
17845;DHT22;9047;53.486;10.218;2024-03-23T04:39:42;5.70;99.90
17845;DHT22;9047;53.486;10.218;2024-03-23T04:42:10;5.70;99.90
17845;DHT22;9047;53.486;10.218;2024-03-23T04:44:41;5.70;99.90
17845;DHT22;9047;53.486;10.218;2024-03-23T04:47:08;5.70;99.90
17845;DHT22;9047;53.486;10.218;2024-03-23T04:49:35;5.70;99.90
17845;DHT22;9047;53.486;10.218;2024-03-23T04:52:03;5.70;99.90
17845;DHT22;9047;53.486;10.218;2024-03-23T04:54:30;5.70;99.90
17845;DHT22;9047;53.486;10.218;2024-03-23T04:56:59;5.70;99.90
17845;DHT22;9047;53.486;10.218;2024-03-23T04:59:27;5.60;99.90
17845;DHT22;9047;53.486;10.218;2024-03-23T05:01:53;5.60;99.90
17845;DHT22;9047;53.486;10.218;2024-03-23T05:04:22;5.70;99.90
17845;DHT22;9047;53.486;10.218;2024-03-23T05:06:50;5.60;99.90
17845;DHT22;9047;53.486;10.218;2024-03-23T05:09:17;5.60;99.90
17845;DHT22;9047;53.486;10.218;2024-03-23T05:11:44;5.60;99.90
17845;DHT22;9047;53.486;10.218;2024-03-23T05:14:12;5.60;99.90
17845;DHT22;9047;53.486;10.218;2024-03-23T05:16:40;5.60;99.90
17845;DHT22;9047;53.486;10.218;2024-03-23T05:19:10;5.60;99.90
17845;DHT22;9047;53.486;10.218;2024-03-23T05:21:37;5.60;99.90
17845;DHT22;9047;53.486;10.218;2024-03-23T05:24:05;5.60;99.90
17845;DHT22;9047;53.486;10.218;2024-03-23T05:26:31;5.60;99.90
17845;DHT22;9047;53.486;10.218;2024-03-23T05:28:59;5.70;99.90
17845;DHT22;9047;53.486;10.218;2024-03-23T05:31:26;5.70;99.90
17845;DHT22;9047;53.486;10.218;2024-03-23T05:33:58;5.70;99.90
17845;DHT22;9047;53.486;10.218;2024-03-23T05:36:24;5.70;99.90
17845;DHT22;9047;53.486;10.218;2024-03-23T05:38:54;5.70;99.90
17845;DHT22;9047;53.486;10.218;2024-03-23T05:41:20;5.70;99.90
17845;DHT22;9047;53.486;10.218;2024-03-23T05:43:49;5.70;99.90
17845;DHT22;9047;53.486;10.218;2024-03-23T05:46:17;5.70;99.90
17845;DHT22;9047;53.486;10.218;2024-03-23T05:48:44;5.70;99.90
17845;DHT22;9047;53.486;10.218;2024-03-23T05:51:11;5.70;99.90
17845;DHT22;9047;53.486;10.218;2024-03-23T05:53:43;5.70;99.90
17845;DHT22;9047;53.486;10.218;2024-03-23T05:56:09;5.80;99.90
17845;DHT22;9047;53.486;10.218;2024-03-23T05:58:38;5.80;99.90
17845;DHT22;9047;53.486;10.218;2024-03-23T06:01:04;5.80;99.90
17845;DHT22;9047;53.486;10.218;2024-03-23T06:03:32;5.90;99.90
17845;DHT22;9047;53.486;10.218;2024-03-23T06:05:58;5.90;99.90
17845;DHT22;9047;53.486;10.218;2024-03-23T06:08:29;6.00;99.90
17845;DHT22;9047;53.486;10.218;2024-03-23T06:10:55;6.00;99.90
17845;DHT22;9047;53.486;10.218;2024-03-23T06:13:22;6.00;99.90
17845;DHT22;9047;53.486;10.218;2024-03-23T06:15:55;6.10;99.90
17845;DHT22;9047;53.486;10.218;2024-03-23T06:18:22;6.10;99.90
17845;DHT22;9047;53.486;10.218;2024-03-23T06:20:51;6.10;99.90
17845;DHT22;9047;53.486;10.218;2024-03-23T06:23:18;6.20;99.90
17845;DHT22;9047;53.486;10.218;2024-03-23T06:25:48;6.20;99.90
17845;DHT22;9047;53.486;10.218;2024-03-23T06:28:15;6.30;99.90
17845;DHT22;9047;53.486;10.218;2024-03-23T06:30:41;6.30;99.90
17845;DHT22;9047;53.486;10.218;2024-03-23T06:33:08;6.30;99.90
17845;DHT22;9047;53.486;10.218;2024-03-23T06:35:34;6.40;99.90
17845;DHT22;9047;53.486;10.218;2024-03-23T06:38:01;6.40;99.90
17845;DHT22;9047;53.486;10.218;2024-03-23T06:40:27;6.50;99.90
17845;DHT22;9047;53.486;10.218;2024-03-23T06:42:55;6.60;99.90
17845;DHT22;9047;53.486;10.218;2024-03-23T06:45:21;6.80;99.90
17845;DHT22;9047;53.486;10.218;2024-03-23T06:47:52;6.90;99.90
17845;DHT22;9047;53.486;10.218;2024-03-23T06:50:18;7.10;99.90
17845;DHT22;9047;53.486;10.218;2024-03-23T06:52:45;7.30;99.90
17845;DHT22;9047;53.486;10.218;2024-03-23T06:55:11;7.70;99.90
17845;DHT22;9047;53.486;10.218;2024-03-23T06:57:40;8.20;99.90
17845;DHT22;9047;53.486;10.218;2024-03-23T07:00:09;8.60;99.90
17845;DHT22;9047;53.486;10.218;2024-03-23T07:02:39;9.00;99.90
17845;DHT22;9047;53.486;10.218;2024-03-23T07:05:06;9.40;99.90
17845;DHT22;9047;53.486;10.218;2024-03-23T07:07:39;9.70;99.90
17845;DHT22;9047;53.486;10.218;2024-03-23T07:10:07;9.90;99.90
17845;DHT22;9047;53.486;10.218;2024-03-23T07:12:39;9.90;99.90
17845;DHT22;9047;53.486;10.218;2024-03-23T07:15:09;9.90;99.90
17845;DHT22;9047;53.486;10.218;2024-03-23T07:17:38;10.00;99.90
17845;DHT22;9047;53.486;10.218;2024-03-23T07:20:05;10.10;99.90
17845;DHT22;9047;53.486;10.218;2024-03-23T07:22:37;10.10;99.90
17845;DHT22;9047;53.486;10.218;2024-03-23T07:25:05;10.30;99.90
17845;DHT22;9047;53.486;10.218;2024-03-23T07:27:35;10.50;99.90
17845;DHT22;9047;53.486;10.218;2024-03-23T07:30:09;10.70;99.90
17845;DHT22;9047;53.486;10.218;2024-03-23T07:32:38;10.60;99.90
17845;DHT22;9047;53.486;10.218;2024-03-23T07:35:05;10.40;99.90
17845;DHT22;9047;53.486;10.218;2024-03-23T07:37:32;10.20;99.90
17845;DHT22;9047;53.486;10.218;2024-03-23T07:39:58;10.10;99.90
17845;DHT22;9047;53.486;10.218;2024-03-23T07:42:25;9.90;99.90
17845;DHT22;9047;53.486;10.218;2024-03-23T07:44:52;9.70;99.90
17845;DHT22;9047;53.486;10.218;2024-03-23T07:47:22;9.60;99.90
17845;DHT22;9047;53.486;10.218;2024-03-23T07:49:48;9.40;99.90
17845;DHT22;9047;53.486;10.218;2024-03-23T07:52:16;9.40;99.90
17845;DHT22;9047;53.486;10.218;2024-03-23T07:54:44;9.30;99.90
17845;DHT22;9047;53.486;10.218;2024-03-23T07:57:22;9.30;99.90
17845;DHT22;9047;53.486;10.218;2024-03-23T07:59:49;9.40;99.90
17845;DHT22;9047;53.486;10.218;2024-03-23T08:02:17;9.50;99.90
17845;DHT22;9047;53.486;10.218;2024-03-23T08:04:44;9.70;99.90
17845;DHT22;9047;53.486;10.218;2024-03-23T08:07:13;9.90;99.90
17845;DHT22;9047;53.486;10.218;2024-03-23T08:09:55;10.00;99.90
17845;DHT22;9047;53.486;10.218;2024-03-23T08:12:24;10.20;99.90
17845;DHT22;9047;53.486;10.218;2024-03-23T08:14:51;10.30;99.90
17845;DHT22;9047;53.486;10.218;2024-03-23T08:17:18;10.30;99.90
17845;DHT22;9047;53.486;10.218;2024-03-23T08:19:51;10.30;99.90
17845;DHT22;9047;53.486;10.218;2024-03-23T08:22:24;10.40;99.90
17845;DHT22;9047;53.486;10.218;2024-03-23T08:24:50;10.50;99.90
17845;DHT22;9047;53.486;10.218;2024-03-23T08:27:17;10.60;99.90
17845;DHT22;9047;53.486;10.218;2024-03-23T08:29:45;10.60;99.90
17845;DHT22;9047;53.486;10.218;2024-03-23T08:32:12;10.60;99.90
17845;DHT22;9047;53.486;10.218;2024-03-23T08:34:42;10.60;99.90
17845;DHT22;9047;53.486;10.218;2024-03-23T08:37:40;10.50;99.90
17845;DHT22;9047;53.486;10.218;2024-03-23T08:40:12;10.40;99.90
17845;DHT22;9047;53.486;10.218;2024-03-23T08:42:41;10.40;99.90
17845;DHT22;9047;53.486;10.218;2024-03-23T08:45:09;10.40;99.90
17845;DHT22;9047;53.486;10.218;2024-03-23T08:47:37;10.40;99.90
17845;DHT22;9047;53.486;10.218;2024-03-23T08:50:06;10.40;99.90
17845;DHT22;9047;53.486;10.218;2024-03-23T08:52:33;10.50;99.90
17845;DHT22;9047;53.486;10.218;2024-03-23T08:55:03;10.60;99.90
17845;DHT22;9047;53.486;10.218;2024-03-23T08:57:29;10.60;99.90
17845;DHT22;9047;53.486;10.218;2024-03-23T09:00:12;10.70;99.90
17845;DHT22;9047;53.486;10.218;2024-03-23T09:02:38;10.70;99.90
17845;DHT22;9047;53.486;10.218;2024-03-23T09:05:05;10.70;99.90
17845;DHT22;9047;53.486;10.218;2024-03-23T09:07:32;10.60;99.90
17845;DHT22;9047;53.486;10.218;2024-03-23T09:09:59;10.50;99.90
17845;DHT22;9047;53.486;10.218;2024-03-23T09:12:27;10.70;99.90
17845;DHT22;9047;53.486;10.218;2024-03-23T09:14:54;10.70;99.90
17845;DHT22;9047;53.486;10.218;2024-03-23T09:17:20;10.70;99.90
17845;DHT22;9047;53.486;10.218;2024-03-23T09:19:48;10.70;99.90
17845;DHT22;9047;53.486;10.218;2024-03-23T09:22:16;10.80;99.90
17845;DHT22;9047;53.486;10.218;2024-03-23T09:24:43;10.90;99.90
17845;DHT22;9047;53.486;10.218;2024-03-23T09:27:09;11.00;99.90
17845;DHT22;9047;53.486;10.218;2024-03-23T09:29:40;10.90;99.90
17845;DHT22;9047;53.486;10.218;2024-03-23T09:32:07;10.70;99.90
17845;DHT22;9047;53.486;10.218;2024-03-23T09:34:34;10.60;99.90
17845;DHT22;9047;53.486;10.218;2024-03-23T09:37:02;10.40;99.90
17845;DHT22;9047;53.486;10.218;2024-03-23T09:39:37;10.30;99.90
17845;DHT22;9047;53.486;10.218;2024-03-23T09:42:05;10.30;99.90
17845;DHT22;9047;53.486;10.218;2024-03-23T09:44:38;10.40;99.90
17845;DHT22;9047;53.486;10.218;2024-03-23T09:47:05;10.50;99.90
17845;DHT22;9047;53.486;10.218;2024-03-23T09:49:33;10.70;99.90
17845;DHT22;9047;53.486;10.218;2024-03-23T09:52:04;10.90;99.90
17845;DHT22;9047;53.486;10.218;2024-03-23T09:54:32;11.00;99.90
17845;DHT22;9047;53.486;10.218;2024-03-23T09:56:59;11.00;99.90
17845;DHT22;9047;53.486;10.218;2024-03-23T09:59:27;11.20;99.90
17845;DHT22;9047;53.486;10.218;2024-03-23T10:01:57;11.30;99.90
17845;DHT22;9047;53.486;10.218;2024-03-23T10:04:42;11.50;99.90
17845;DHT22;9047;53.486;10.218;2024-03-23T10:07:12;11.60;99.90
17845;DHT22;9047;53.486;10.218;2024-03-23T10:09:40;11.80;99.90
17845;DHT22;9047;53.486;10.218;2024-03-23T10:12:10;11.90;99.90
17845;DHT22;9047;53.486;10.218;2024-03-23T10:14:39;12.10;99.90
17845;DHT22;9047;53.486;10.218;2024-03-23T10:17:14;12.20;99.90
17845;DHT22;9047;53.486;10.218;2024-03-23T10:19:43;12.30;99.90
17845;DHT22;9047;53.486;10.218;2024-03-23T10:22:13;12.20;99.90
17845;DHT22;9047;53.486;10.218;2024-03-23T10:24:43;12.30;99.90
17845;DHT22;9047;53.486;10.218;2024-03-23T10:27:10;12.20;99.90
17845;DHT22;9047;53.486;10.218;2024-03-23T10:29:42;12.20;99.90
17845;DHT22;9047;53.486;10.218;2024-03-23T10:32:08;12.10;99.90
17845;DHT22;9047;53.486;10.218;2024-03-23T10:34:38;12.00;99.90
17845;DHT22;9047;53.486;10.218;2024-03-23T10:37:05;12.00;99.90
17845;DHT22;9047;53.486;10.218;2024-03-23T10:39:34;12.10;99.90
17845;DHT22;9047;53.486;10.218;2024-03-23T10:42:02;12.00;99.90
17845;DHT22;9047;53.486;10.218;2024-03-23T10:44:29;12.00;99.90
17845;DHT22;9047;53.486;10.218;2024-03-23T10:46:58;12.10;99.90
17845;DHT22;9047;53.486;10.218;2024-03-23T10:49:32;12.20;99.90
17845;DHT22;9047;53.486;10.218;2024-03-23T10:52:00;12.30;99.90
17845;DHT22;9047;53.486;10.218;2024-03-23T10:54:27;12.50;99.90
17845;DHT22;9047;53.486;10.218;2024-03-23T10:56:59;12.50;99.90
17845;DHT22;9047;53.486;10.218;2024-03-23T10:59:29;12.70;99.90
17845;DHT22;9047;53.486;10.218;2024-03-23T11:01:57;12.80;99.90
17845;DHT22;9047;53.486;10.218;2024-03-23T11:04:33;12.70;99.90
17845;DHT22;9047;53.486;10.218;2024-03-23T11:07:01;12.70;99.90
17845;DHT22;9047;53.486;10.218;2024-03-23T11:09:42;12.70;99.90
17845;DHT22;9047;53.486;10.218;2024-03-23T11:12:28;12.80;99.90
17845;DHT22;9047;53.486;10.218;2024-03-23T11:15:00;12.90;99.90
17845;DHT22;9047;53.486;10.218;2024-03-23T11:17:27;12.80;99.90
17845;DHT22;9047;53.486;10.218;2024-03-23T11:19:57;12.70;99.90
17845;DHT22;9047;53.486;10.218;2024-03-23T11:22:48;12.40;99.90
17845;DHT22;9047;53.486;10.218;2024-03-23T11:25:20;11.90;99.90
17845;DHT22;9047;53.486;10.218;2024-03-23T11:27:48;11.50;99.90
17845;DHT22;9047;53.486;10.218;2024-03-23T11:30:19;11.10;99.90
17845;DHT22;9047;53.486;10.218;2024-03-23T11:32:46;10.70;99.90
17845;DHT22;9047;53.486;10.218;2024-03-23T11:35:27;10.60;99.90
17845;DHT22;9047;53.486;10.218;2024-03-23T11:38:08;10.80;99.90
17845;DHT22;9047;53.486;10.218;2024-03-23T11:40:37;11.00;99.90
17845;DHT22;9047;53.486;10.218;2024-03-23T11:43:05;11.20;99.90
17845;DHT22;9047;53.486;10.218;2024-03-23T11:45:38;11.50;99.90
17845;DHT22;9047;53.486;10.218;2024-03-23T11:48:07;11.80;99.90
17845;DHT22;9047;53.486;10.218;2024-03-23T11:50:37;12.00;99.90
17845;DHT22;9047;53.486;10.218;2024-03-23T11:53:17;12.20;99.90
17845;DHT22;9047;53.486;10.218;2024-03-23T11:55:46;12.40;99.90
17845;DHT22;9047;53.486;10.218;2024-03-23T11:58:14;12.40;99.90
17845;DHT22;9047;53.486;10.218;2024-03-23T12:00:50;12.30;99.90
17845;DHT22;9047;53.486;10.218;2024-03-23T12:03:17;12.10;99.90
17845;DHT22;9047;53.486;10.218;2024-03-23T12:05:49;11.90;99.90
17845;DHT22;9047;53.486;10.218;2024-03-23T12:08:24;11.60;99.90
17845;DHT22;9047;53.486;10.218;2024-03-23T12:10:53;11.30;99.90
17845;DHT22;9047;53.486;10.218;2024-03-23T12:13:21;11.10;99.90
17845;DHT22;9047;53.486;10.218;2024-03-23T12:15:50;11.10;99.90
17845;DHT22;9047;53.486;10.218;2024-03-23T12:18:17;11.40;99.90
17845;DHT22;9047;53.486;10.218;2024-03-23T12:20:50;11.60;99.90
17845;DHT22;9047;53.486;10.218;2024-03-23T12:23:16;11.80;99.90
17845;DHT22;9047;53.486;10.218;2024-03-23T12:25:59;12.00;99.90
17845;DHT22;9047;53.486;10.218;2024-03-23T12:28:26;12.30;99.90
17845;DHT22;9047;53.486;10.218;2024-03-23T12:30:52;12.50;99.90
17845;DHT22;9047;53.486;10.218;2024-03-23T12:33:21;12.80;99.90
17845;DHT22;9047;53.486;10.218;2024-03-23T12:35:48;12.50;99.90
17845;DHT22;9047;53.486;10.218;2024-03-23T12:38:16;12.20;99.90
17845;DHT22;9047;53.486;10.218;2024-03-23T12:40:46;12.00;99.90
17845;DHT22;9047;53.486;10.218;2024-03-23T12:43:15;11.90;99.90
17845;DHT22;9047;53.486;10.218;2024-03-23T12:45:45;12.10;99.90
17845;DHT22;9047;53.486;10.218;2024-03-23T12:48:12;12.30;99.90
17845;DHT22;9047;53.486;10.218;2024-03-23T12:50:38;12.60;99.90
17845;DHT22;9047;53.486;10.218;2024-03-23T12:53:05;12.90;99.90
17845;DHT22;9047;53.486;10.218;2024-03-23T12:55:34;12.90;99.90
17845;DHT22;9047;53.486;10.218;2024-03-23T12:58:02;12.60;99.90
17845;DHT22;9047;53.486;10.218;2024-03-23T13:00:30;12.20;99.90
17845;DHT22;9047;53.486;10.218;2024-03-23T13:02:57;11.80;99.90
17845;DHT22;9047;53.486;10.218;2024-03-23T13:05:23;10.60;99.90
17845;DHT22;9047;53.486;10.218;2024-03-23T13:07:50;9.90;99.90
17845;DHT22;9047;53.486;10.218;2024-03-23T13:10:16;9.30;99.90
17845;DHT22;9047;53.486;10.218;2024-03-23T13:12:47;8.90;99.90
17845;DHT22;9047;53.486;10.218;2024-03-23T13:15:12;8.50;99.90
17845;DHT22;9047;53.486;10.218;2024-03-23T13:17:47;8.30;99.90
17845;DHT22;9047;53.486;10.218;2024-03-23T13:20:15;7.90;99.90
17845;DHT22;9047;53.486;10.218;2024-03-23T13:22:44;7.60;99.90
17845;DHT22;9047;53.486;10.218;2024-03-23T13:25:10;7.30;99.90
17845;DHT22;9047;53.486;10.218;2024-03-23T13:27:38;7.50;99.90
17845;DHT22;9047;53.486;10.218;2024-03-23T13:30:09;7.60;99.90
17845;DHT22;9047;53.486;10.218;2024-03-23T13:32:36;7.80;99.90
17845;DHT22;9047;53.486;10.218;2024-03-23T13:35:04;8.10;99.90
17845;DHT22;9047;53.486;10.218;2024-03-23T13:37:34;8.10;99.90
17845;DHT22;9047;53.486;10.218;2024-03-23T13:39:59;8.30;99.90
17845;DHT22;9047;53.486;10.218;2024-03-23T13:42:26;8.30;99.90
17845;DHT22;9047;53.486;10.218;2024-03-23T13:44:52;8.20;99.90
17845;DHT22;9047;53.486;10.218;2024-03-23T13:47:21;8.10;99.90
17845;DHT22;9047;53.486;10.218;2024-03-23T13:49:48;7.90;99.90
17845;DHT22;9047;53.486;10.218;2024-03-23T13:52:18;7.70;99.90
17845;DHT22;9047;53.486;10.218;2024-03-23T13:54:51;7.70;99.90
17845;DHT22;9047;53.486;10.218;2024-03-23T13:57:18;7.80;99.90
17845;DHT22;9047;53.486;10.218;2024-03-23T13:59:47;7.90;99.90
17845;DHT22;9047;53.486;10.218;2024-03-23T14:02:16;8.10;99.90
17845;DHT22;9047;53.486;10.218;2024-03-23T14:04:43;8.20;99.90
17845;DHT22;9047;53.486;10.218;2024-03-23T14:07:10;8.10;99.90
17845;DHT22;9047;53.486;10.218;2024-03-23T14:09:38;8.00;99.90
17845;DHT22;9047;53.486;10.218;2024-03-23T14:12:19;8.10;99.90
17845;DHT22;9047;53.486;10.218;2024-03-23T14:14:46;8.10;99.90
17845;DHT22;9047;53.486;10.218;2024-03-23T14:17:13;8.30;99.90
17845;DHT22;9047;53.486;10.218;2024-03-23T14:19:44;8.40;99.90
17845;DHT22;9047;53.486;10.218;2024-03-23T14:22:10;8.50;99.90
17845;DHT22;9047;53.486;10.218;2024-03-23T14:24:43;8.70;99.90
17845;DHT22;9047;53.486;10.218;2024-03-23T14:27:09;8.90;99.90
17845;DHT22;9047;53.486;10.218;2024-03-23T14:29:37;8.90;99.90
17845;DHT22;9047;53.486;10.218;2024-03-23T14:32:12;9.00;99.90
17845;DHT22;9047;53.486;10.218;2024-03-23T14:34:39;8.90;99.90
17845;DHT22;9047;53.486;10.218;2024-03-23T14:37:06;8.90;99.90
17845;DHT22;9047;53.486;10.218;2024-03-23T14:39:33;8.90;99.90
17845;DHT22;9047;53.486;10.218;2024-03-23T14:42:01;8.90;99.90
17845;DHT22;9047;53.486;10.218;2024-03-23T14:44:29;8.90;99.90
17845;DHT22;9047;53.486;10.218;2024-03-23T14:46:55;8.90;99.90
17845;DHT22;9047;53.486;10.218;2024-03-23T14:49:27;9.00;99.90
17845;DHT22;9047;53.486;10.218;2024-03-23T14:51:55;9.10;99.90
17845;DHT22;9047;53.486;10.218;2024-03-23T14:54:23;9.20;99.90
17845;DHT22;9047;53.486;10.218;2024-03-23T14:56:52;9.30;99.90
17845;DHT22;9047;53.486;10.218;2024-03-23T14:59:21;9.40;99.90
17845;DHT22;9047;53.486;10.218;2024-03-23T15:01:48;9.50;99.90
17845;DHT22;9047;53.486;10.218;2024-03-23T15:04:21;9.60;99.90
17845;DHT22;9047;53.486;10.218;2024-03-23T15:06:47;9.70;99.90
17845;DHT22;9047;53.486;10.218;2024-03-23T15:09:16;9.90;99.90
17845;DHT22;9047;53.486;10.218;2024-03-23T15:11:52;9.80;99.90
17845;DHT22;9047;53.486;10.218;2024-03-23T15:14:23;9.80;99.90
17845;DHT22;9047;53.486;10.218;2024-03-23T15:16:50;9.80;99.90
17845;DHT22;9047;53.486;10.218;2024-03-23T15:19:21;9.90;99.90
17845;DHT22;9047;53.486;10.218;2024-03-23T15:21:49;9.80;99.90
17845;DHT22;9047;53.486;10.218;2024-03-23T15:24:16;9.70;99.90
17845;DHT22;9047;53.486;10.218;2024-03-23T15:26:46;9.70;99.90
17845;DHT22;9047;53.486;10.218;2024-03-23T15:29:13;9.60;99.90
17845;DHT22;9047;53.486;10.218;2024-03-23T15:32:08;9.50;99.90
17845;DHT22;9047;53.486;10.218;2024-03-23T15:34:40;9.40;99.90
17845;DHT22;9047;53.486;10.218;2024-03-23T15:37:18;9.30;99.90
17845;DHT22;9047;53.486;10.218;2024-03-23T15:39:49;9.00;99.90
17845;DHT22;9047;53.486;10.218;2024-03-23T15:42:19;8.80;99.90
17845;DHT22;9047;53.486;10.218;2024-03-23T15:44:46;8.60;99.90
17845;DHT22;9047;53.486;10.218;2024-03-23T15:47:18;8.50;99.90
17845;DHT22;9047;53.486;10.218;2024-03-23T15:49:46;8.60;99.90
17845;DHT22;9047;53.486;10.218;2024-03-23T15:52:13;8.50;99.90
17845;DHT22;9047;53.486;10.218;2024-03-23T15:54:39;8.60;99.90
17845;DHT22;9047;53.486;10.218;2024-03-23T15:57:08;8.70;99.90
17845;DHT22;9047;53.486;10.218;2024-03-23T15:59:35;8.60;99.90
17845;DHT22;9047;53.486;10.218;2024-03-23T16:02:08;8.40;99.90
17845;DHT22;9047;53.486;10.218;2024-03-23T16:04:37;8.30;99.90
17845;DHT22;9047;53.486;10.218;2024-03-23T16:07:05;8.20;99.90
17845;DHT22;9047;53.486;10.218;2024-03-23T16:09:33;8.00;99.90
17845;DHT22;9047;53.486;10.218;2024-03-23T16:12:01;7.80;99.90
17845;DHT22;9047;53.486;10.218;2024-03-23T16:14:30;7.80;99.90
17845;DHT22;9047;53.486;10.218;2024-03-23T16:16:57;7.60;99.90
17845;DHT22;9047;53.486;10.218;2024-03-23T16:19:23;7.50;99.90
17845;DHT22;9047;53.486;10.218;2024-03-23T16:21:53;7.30;99.90
17845;DHT22;9047;53.486;10.218;2024-03-23T16:24:22;7.30;99.90
17845;DHT22;9047;53.486;10.218;2024-03-23T16:26:53;7.30;99.90
17845;DHT22;9047;53.486;10.218;2024-03-23T16:29:21;7.30;99.90
17845;DHT22;9047;53.486;10.218;2024-03-23T16:31:49;7.30;99.90
17845;DHT22;9047;53.486;10.218;2024-03-23T16:34:17;7.40;99.90
17845;DHT22;9047;53.486;10.218;2024-03-23T16:36:47;7.50;99.90
17845;DHT22;9047;53.486;10.218;2024-03-23T16:39:18;7.50;99.90
17845;DHT22;9047;53.486;10.218;2024-03-23T16:41:48;7.50;99.90